Bratislava, Slovakia
Current Conditions -  °F | °C
As of 6:00 AM on Monday 22 Dec 2014 (Local Time) from LZIB Reporting Station
Clear Clear  
Wind Chill: 38°   Ceiling: Unl
Heat Index: 45°   Visibility: 6mi
Dew Point: 30°   Wind: 13mph
Humidity: 57%   Direction: 270°W
Pressure: 30.24"   Gusts: NA
Location:  48.16°N, 17.13°E
Report Text: LZIB 220400Z 27011KT CAVOK 07/M01 Q1024
Loading
Personal Weather Stations






























Interactive Weather Map New forecast layout! Learn more

10-Day Weather Forecast

Advertisements
Track Severe Weather on mobile